Terminal Aerodrome Forecast
Issued by NWS Indianapolis, IN

Home | Current Version | Previous Version | Text Only | Print | Product List | Glossary On
Versions: 1 2 3 4 5 6 7 8 9 10 11 12 13 14 15 16 17 18 19 20 21 22 23 24 25 26 27 28 29
000
FTUS43 KIND 231700
TAFIND
TAF
KIND 231727Z 2318/2424 16006KT P6SM BKN040
     FM232100 26006KT P6SM VCTS SCT030CB BKN250
     FM240200 07005KT P6SM SCT080 BKN250
     FM241400 11006KT P6SM SCT020 BKN250=

USA.gov is the U.S. government's official web portal to all federal, state and local government web resources and services.